createdAt,value
2023-03-23T16:00:18.641Z,49.02
2023-03-23T16:05:27.064Z,49.79
2023-03-23T16:10:32.522Z,50.54
2023-03-23T16:15:40.654Z,50.88
2023-03-23T16:20:49.011Z,51.39
2023-03-23T16:25:57.309Z,51.12
2023-03-23T16:31:12.063Z,50.47
2023-03-23T16:36:14.496Z,50.39
2023-03-23T16:41:16.817Z,50.31
2023-03-23T16:46:18.912Z,50.55
2023-03-23T16:51:23.332Z,50.60
2023-03-23T16:58:09.027Z,50.14
2023-03-23T17:04:35.517Z,50.73
2023-03-23T17:10:57.304Z,51.44
2023-03-23T17:17:19.224Z,51.76
2023-03-23T17:22:59.731Z,52.33
2023-03-23T17:29:12.363Z,52.89
2023-03-23T17:35:37.449Z,53.32
2023-03-23T17:40:45.901Z,53.23
2023-03-23T17:46:01.186Z,52.92
2023-03-23T17:51:30.964Z,52.94
2023-03-23T17:56:58.000Z,53.11
2023-03-23T18:02:27.797Z,53.21
2023-03-23T18:07:53.353Z,53.24
2023-03-23T18:13:32.938Z,53.35
2023-03-23T18:18:38.766Z,53.53
2023-03-23T18:23:59.551Z,53.67
2023-03-23T18:30:05.938Z,53.66
2023-03-23T18:35:48.040Z,53.64
2023-03-23T18:41:49.511Z,53.60
2023-03-23T18:47:11.301Z,53.23
2023-03-23T18:52:14.376Z,53.01
2023-03-23T18:58:16.061Z,53.21
2023-03-23T19:04:37.243Z,53.36
2023-03-23T19:10:09.329Z,53.45
2023-03-23T19:15:11.568Z,53.83
2023-03-23T19:20:37.460Z,53.91
2023-03-23T19:26:05.179Z,54.17
2023-03-23T19:31:08.140Z,54.25
2023-03-23T19:36:19.686Z,54.15
2023-03-23T19:49:09.719Z,53.92
2023-03-23T19:55:30.969Z,53.39
2023-03-23T20:01:59.862Z,53.44
2023-03-23T20:08:21.450Z,53.66
2023-03-23T20:13:50.242Z,54.04
2023-03-23T20:18:53.644Z,54.42
2023-03-23T20:23:57.783Z,54.40
2023-03-23T20:29:14.690Z,54.54
2023-03-23T20:34:43.843Z,54.47
2023-03-23T20:40:08.969Z,54.24
2023-03-23T20:45:51.626Z,53.95
2023-03-23T20:51:17.034Z,53.56
2023-03-23T20:56:53.745Z,53.48
2023-03-23T21:02:47.006Z,53.16
2023-03-23T21:08:39.565Z,52.77
2023-03-23T21:14:10.190Z,52.73
2023-03-23T21:19:16.752Z,52.50
2023-03-23T21:24:30.987Z,52.57
2023-03-23T21:29:34.205Z,52.48
2023-03-23T21:34:46.279Z,52.31
2023-03-23T21:40:12.802Z,52.40
2023-03-23T21:45:25.200Z,52.48
2023-03-23T21:50:44.579Z,52.59
2023-03-23T21:56:13.940Z,52.71
2023-03-23T22:01:33.906Z,52.82
2023-03-23T22:06:48.090Z,53.05
2023-03-23T22:12:09.193Z,53.16
2023-03-23T22:17:37.357Z,53.26
2023-03-23T22:23:10.305Z,53.26
2023-03-23T22:28:28.720Z,53.46
2023-03-23T22:34:15.853Z,53.42
2023-03-23T22:40:45.750Z,53.50
2023-03-23T22:47:49.949Z,53.54
2023-03-23T22:53:55.591Z,53.68
2023-03-23T22:59:24.856Z,53.79
2023-03-23T23:05:14.071Z,53.80
2023-03-23T23:11:02.757Z,53.95
2023-03-23T23:17:21.437Z,54.07
2023-03-23T23:24:28.405Z,54.13
2023-03-23T23:31:32.475Z,54.35
2023-03-23T23:38:32.835Z,54.48
2023-03-23T23:44:41.703Z,54.71
2023-03-23T23:51:02.224Z,54.67
2023-03-23T23:57:25.395Z,54.82
